ADDS METAR Data INFO
IDs: Format: Raw Decoded Include TAF

Data at: 2158 UTC 16 Oct 2017

KF00 162135Z AUTO 01005KT 10SM CLR 21/02 A3029 RMK AO2 T02060020
KF00 162115Z AUTO 01006KT 10SM CLR 21/02 A3030 RMK AO2 T02080023
KF00 162055Z AUTO 02007KT 10SM CLR 21/02 A3030 RMK AO2 T02080024
KF00 162035Z AUTO 03003KT 10SM CLR 21/02 A3030 RMK AO2 T02070016
KF00 162015Z AUTO 02006KT 10SM CLR 21/02 A3031 RMK AO2 T02050025
KF00 161955Z AUTO 34007KT 10SM CLR 20/02 A3032 RMK AO2 T02040019
KF00 161935Z AUTO 02007KT 360V060 10SM CLR 20/02 A3033 RMK AO2 T02000023
KF00 161915Z AUTO 02007KT 340V040 10SM CLR 20/02 A3035 RMK AO2 T01970021
KF00 161855Z AUTO 03009KT 10SM CLR 20/02 A3036 RMK AO2 T01980022
KF00 161835Z AUTO 01005KT 10SM CLR 20/04 A3037 RMK AO2 T01980036
KF00 161815Z AUTO 03006KT 10SM CLR 19/05 A3038 RMK AO2 T01890046
KF00 161755Z AUTO 02005KT 10SM CLR 19/04 A3040 RMK AO2 T01850041 10192 20055
KF00 161735Z AUTO 09003KT 10SM CLR 19/05 A3041 RMK AO2 T01880045
KF00 161715Z AUTO 07008KT 030V090 10SM CLR 18/05 A3041 RMK AO2 T01780047
KF00 161655Z AUTO 06010KT 10SM CLR 18/06 A3042 RMK AO2 T01780057
KF00 161635Z AUTO 06008KT 10SM CLR 17/05 A3043 RMK AO2 T01740053
KF00 161615Z AUTO 09011G16KT 10SM CLR 17/05 A3044 RMK AO2 T01680050
KF00 161555Z AUTO 09009KT 10SM CLR 17/06 A3044 RMK AO2 T01670062
KF00 161535Z AUTO 05009KT 10SM CLR 15/06 A3044 RMK AO2 T01540060
KF00 161515Z AUTO 05009KT 10SM CLR 15/06 A3044 RMK AO2 T01460064
KF00 161455Z AUTO 04007KT 10SM CLR 13/07 A3044 RMK AO2 T01340065
KF00 161435Z AUTO 03008KT 10SM CLR 12/06 A3044 RMK AO2 T01230062
KF00 161415Z AUTO 03005KT 10SM CLR 11/06 A3043 RMK AO2 T01140062
KF00 161355Z AUTO 02007KT 10SM CLR 10/06 A3042 RMK AO2 T01020057
KF00 161335Z AUTO 01005KT 10SM CLR 09/06 A3041 RMK AO2 T00880057
KF00 161315Z AUTO 35006KT 10SM CLR 07/05 A3041 RMK AO2 T00720051
KF00 161255Z AUTO 34004KT 10SM CLR 06/05 A3041 RMK AO2 T00600047
KF00 161235Z AUTO 33004KT 10SM CLR 06/04 A3041 RMK AO2 T00570045
KF00 161215Z AUTO 33004KT 10SM CLR 06/04 A3040 RMK AO2 T00610045
KF00 161155Z AUTO 33005KT 10SM CLR 07/05 A3040 RMK AO2 T00660046 10099 20065
KF00 161135Z AUTO 34005KT 10SM CLR 07/05 A3040 RMK AO2 T00670047
KF00 161115Z AUTO 34006KT 10SM CLR 07/05 A3039 RMK AO2 T00670047
KF00 161055Z AUTO 34006KT 10SM CLR 07/05 A3038 RMK AO2 T00690048
KF00 161035Z AUTO 34006KT 10SM CLR 07/05 A3038 RMK AO2 T00710048
KF00 161015Z AUTO 34006KT 10SM CLR 07/05 A3037 RMK AO2 T00730049
KF00 160955Z AUTO 34006KT 10SM CLR 08/05 A3037 RMK AO2 T00760049
KF00 160935Z AUTO 35006KT 10SM CLR 08/05 A3037 RMK AO2 T00770050
KF00 160915Z AUTO 35007KT 10SM CLR 08/05 A3037 RMK AO2 T00790051
KF00 160855Z AUTO 35007KT 10SM CLR 08/05 A3037 RMK AO2 T00820052
KF00 160835Z AUTO 34007KT 10SM CLR 08/05 A3037 RMK AO2 T00810053
KF00 160815Z AUTO 35005KT 10SM CLR 08/05 A3038 RMK AO2 T00840054
KF00 160755Z AUTO 35006KT 10SM CLR 09/05 A3038 RMK AO2 T00880055
KF00 160735Z AUTO 35008KT 10SM CLR 09/06 A3038 RMK AO2 T00880056
KF00 160715Z AUTO 36005KT 10SM CLR 09/06 A3038 RMK AO2 T00920057
KF00 160655Z AUTO 35006KT 10SM CLR 09/06 A3037 RMK AO2 T00930058
KF00 160635Z AUTO 34006KT 10SM CLR 09/06 A3037 RMK AO2 T00940060
KF00 160615Z AUTO 34004KT 10SM CLR 10/06 A3037 RMK AO2 T00950061
KF00 160555Z AUTO 34005KT 10SM CLR 10/06 A3037 RMK AO2 T01000062 10175 20099 402400099
KF00 160535Z AUTO 34006KT 10SM CLR 10/06 A3037 RMK AO2 T01010063
KF00 160515Z AUTO 34004KT 10SM CLR 10/06 A3037 RMK AO2 T01030060
KF00 160455Z AUTO 34004KT 10SM CLR 11/06 A3037 RMK AO2 T01070059
KF00 160435Z AUTO 35005KT 10SM CLR 11/06 A3037 RMK AO2 T01090059
KF00 160415Z AUTO 34005KT 10SM CLR 11/06 A3036 RMK AO2 T01060062
KF00 160355Z AUTO 34004KT 10SM CLR 11/06 A3036 RMK AO2 T01080062
KF00 160335Z AUTO 35003KT 10SM CLR 12/06 A3036 RMK AO2 T01170061
KF00 160315Z AUTO 36003KT 10SM CLR 12/06 A3036 RMK AO2 T01210060
KF00 160255Z AUTO 35004KT 10SM CLR 12/06 A3035 RMK AO2 T01220062
KF00 160235Z AUTO 35004KT 10SM CLR 13/06 A3035 RMK AO2 T01300060
KF00 160215Z AUTO 35004KT 10SM CLR 13/06 A3034 RMK AO2 T01340060
KF00 160155Z AUTO 35005KT 10SM CLR 14/06 A3034 RMK AO2 T01380060
KF00 160135Z AUTO 34004KT 10SM CLR 14/06 A3033 RMK AO2 T01440058
KF00 160115Z AUTO 35005KT 10SM CLR 15/05 A3032 RMK AO2 T01500055
KF00 160055Z AUTO 35005KT 10SM CLR 16/05 A3031 RMK AO2 T01570051
KF00 160035Z AUTO 35006KT 10SM CLR 16/04 A3030 RMK AO2 T01640045
KF00 160015Z AUTO 36007KT 10SM CLR 17/04 A3029 RMK AO2 T01690040
KF00 152355Z AUTO 36009KT 10SM CLR 18/04 A3029 RMK AO2 T01760036 10220 20176
KF00 152335Z AUTO 36011G17KT 10SM CLR 18/04 A3028 RMK AO2 T01830035
KF00 152315Z AUTO 35010G19KT 10SM CLR 19/04 A3027 RMK AO2 T01880037
KF00 152255Z AUTO 36013G18KT 10SM CLR 20/04 A3027 RMK AO2 T01950038
KF00 152235Z AUTO 36011G20KT 10SM CLR 20/04 A3026 RMK AO2 T02040041
KF00 152215Z AUTO 35015G23KT 10SM CLR 21/05 A3026 RMK AO2 T02090045
KF00 152155Z AUTO 35012G21KT 10SM CLR 21/04 A3025 RMK AO2 T02100044
KF00 152135Z AUTO 35013G20KT 10SM CLR 21/05 A3026 RMK AO2 T02140050
KF00 152115Z AUTO 36014G25KT 10SM CLR 21/05 A3025 RMK AO2 T02130048
KF00 152055Z AUTO 35010G20KT 320V030 10SM CLR 22/06 A3025 RMK AO2 T02150058
KF00 152035Z AUTO 35014G22KT 10SM CLR 21/06 A3026 RMK AO2 T02120060
KF00 152015Z AUTO 36011G23KT 320V020 10SM CLR 21/06 A3026 RMK AO2 T02080060
KF00 151955Z AUTO 35014G23KT 10SM CLR 21/06 A3027 RMK AO2 T02080057
KF00 151935Z AUTO 35015G22KT 10SM CLR 20/07 A3026 RMK AO2 T02040070
KF00 151915Z AUTO 35016G22KT 10SM CLR 19/06 A3027 RMK AO2 T01870059
KF00 151855Z AUTO 36011G20KT 10SM CLR 19/07 A3028 RMK AO2 T01950073
KF00 151835Z AUTO 36015G21KT 10SM CLR 19/07 A3028 RMK AO2 T01920073
KF00 151815Z AUTO 36013G20KT 10SM CLR 19/08 A3028 RMK AO2 T01860076
KF00 151755Z AUTO 34013G19KT 10SM CLR 19/08 A3028 RMK AO2 T01860082 10195 20133
KF00 151735Z AUTO 35016G21KT 10SM CLR 18/08 A3028 RMK AO2 T01780081
KF00 151715Z AUTO 01012G19KT 10SM CLR 18/09 A3029 RMK AO2 T01840086
KF00 151655Z AUTO 36012G19KT 10SM CLR 18/09 A3029 RMK AO2 T01770087
KF00 151635Z AUTO 36014G23KT 10SM CLR 17/09 A3029 RMK AO2 T01690087
KF00 151615Z AUTO 35014G19KT 10SM CLR 16/09 A3029 RMK AO2 T01610093
KF00 151555Z AUTO 01013G22KT 10SM CLR 16/10 A3028 RMK AO2 T01570095
KF00 151535Z AUTO 35015G26KT 10SM CLR 14/09 A3028 RMK AO2 T01440092
KF00 151515Z AUTO 36011G26KT 10SM SCT020 14/09 A3028 RMK AO2 T01400094
KF00 151455Z AUTO 35013G23KT 10SM BKN022 14/10 A3027 RMK AO2 T01440101
KF00 151435Z AUTO 36013G20KT 10SM OVC018 13/10 A3026 RMK AO2 LTG DSNT E T01340100
KF00 151415Z AUTO 36013G20KT 10SM OVC016 13/11 A3026 RMK AO2 T01330105
KF00 151355Z AUTO 35011G22KT 10SM OVC014 13/11 A3025 RMK AO2 LTG DSNT E T01330108
KF00 151335Z AUTO 34017G24KT 10SM OVC012 14/12 A3024 RMK AO2 T01370116
KF00 151315Z AUTO 35014G22KT 10SM BKN012 OVC021 15/13 A3021 RMK AO2 T01490133
KF00 151255Z AUTO 36013G18KT 320V020 10SM -RA BKN014 OVC021 16/14 A3018 RMK AO2 T01560143
KF00 151235Z AUTO 36010G14KT 10SM -RA BKN017 OVC050 15/14 A3018 RMK AO2 LTG DSNT E T01550142
KF00 151215Z AUTO 35010G17KT 10SM -RA BKN017 OVC048 15/14 A3018 RMK AO2 LTG DSNT E T01550141
KF00 151155Z AUTO 35012G19KT 10SM -RA SCT017 OVC046 15/14 A3017 RMK AO2 T01550139 10240 20153
KF00 151135Z AUTO 36012G18KT 10SM VCTS SCT015 BKN042 OVC055 15/14 A3015 RMK AO2 LTG DSNT SW T01540140
KF00 151115Z AUTO 35011G17KT 10SM SCT015 OVC040 15/14 A3015 RMK AO2 LTG DSNT SW T01540141
KF00 151055Z AUTO 36010G16KT 10SM -RA BKN013 BKN018 OVC038 15/14 A3014 RMK AO2 LTG DSNT SW T01530141
KF00 151035Z AUTO 36014G22KT 10SM -RA SCT007 BKN013 OVC019 15/14 A3013 RMK AO2 LTG DSNT W T01540142
KF00 151015Z AUTO 35013G21KT 5SM RA BR OVC007 16/15 A3011 RMK AO2 T01630155